Time;durP1;ratioP1;P1;durP2;ratioP2;P2;SDS_P1;SDS_P2;PMS_P1;PMS_P2;Temp;Humidity;BMP_temperature;BMP_pressure;BME280_temperature;BME280_humidity;BME280_pressure;Samples;Min_cycle;Max_cycle;Signal;HPM_P1;HPM_P2
2023/03/04 00:01:39;;;;;;;2.97;0.70;;;25.70;67.00;;;;;;5118822;23;20020;-58
2023/03/04 00:04:02;;;;;;;1.98;0.57;;;25.70;67.10;;;;;;5117017;23;20017;-57
2023/03/04 00:06:24;;;;;;;3.33;0.98;;;25.70;67.50;;;;;;5117779;23;20027;-62
2023/03/04 00:08:47;;;;;;;2.83;1.02;;;25.70;67.00;;;;;;5107824;23;20021;-57
2023/03/04 00:11:10;;;;;;;1.88;0.65;;;25.70;66.90;;;;;;5118950;23;20044;-62
2023/03/04 00:13:32;;;;;;;1.63;0.88;;;25.70;66.60;;;;;;5108092;23;20363;-62
2023/03/04 00:15:54;;;;;;;4.45;1.10;;;25.70;66.80;;;;;;5116249;23;20017;-58
2023/03/04 00:18:17;;;;;;;1.88;0.70;;;25.70;66.70;;;;;;5116879;23;20025;-54
2023/03/04 00:20:40;;;;;;;3.30;0.80;;;25.70;66.40;;;;;;5108050;23;20016;-58
2023/03/04 00:23:02;;;;;;;2.53;0.95;;;25.80;66.20;;;;;;5117518;23;20527;-53
2023/03/04 00:25:24;;;;;;;1.88;0.63;;;25.80;65.80;;;;;;5115784;23;20016;-56
2023/03/04 00:27:47;;;;;;;3.25;0.90;;;25.80;65.80;;;;;;5118517;23;20458;-59
2023/03/04 00:30:10;;;;;;;2.60;0.95;;;25.80;66.00;;;;;;5118794;23;20013;-62
2023/03/04 00:32:32;;;;;;;1.60;0.70;;;25.90;65.80;;;;;;5117595;23;20025;-52
2023/03/04 00:34:55;;;;;;;3.42;1.02;;;25.90;65.40;;;;;;5118417;23;20239;-49
2023/03/04 00:37:17;;;;;;;2.40;0.90;;;25.90;65.40;;;;;;5116803;23;20076;-54
2023/03/04 00:39:40;;;;;;;4.20;1.10;;;25.90;65.00;;;;;;5116087;23;20013;-59
2023/03/04 00:42:02;;;;;;;3.30;1.00;;;25.90;64.30;;;;;;5117185;23;20052;-52
2023/03/04 00:44:24;;;;;;;4.40;0.80;;;26.00;63.50;;;;;;5116355;23;20503;-52
2023/03/04 00:46:47;;;;;;;1.92;0.90;;;25.90;63.10;;;;;;5116724;23;20063;-54
2023/03/04 00:49:09;;;;;;;2.03;0.70;;;26.00;63.80;;;;;;5116796;23;20016;-51
2023/03/04 00:51:32;;;;;;;5.72;1.02;;;26.00;64.10;;;;;;5116942;23;20048;-50
2023/03/04 00:53:54;;;;;;;1.60;0.70;;;25.90;63.70;;;;;;5120101;23;20012;-53
2023/03/04 00:56:17;;;;;;;3.20;0.90;;;26.00;63.80;;;;;;5119957;23;20017;-59
2023/03/04 00:58:39;;;;;;;2.08;0.80;;;26.00;63.90;;;;;;5119957;23;20351;-58
2023/03/04 01:01:02;;;;;;;3.72;1.00;;;26.00;63.90;;;;;;5119665;23;20016;-62
2023/03/04 01:03:25;;;;;;;2.53;0.70;;;26.00;63.80;;;;;;5119320;23;20021;-61
2023/03/04 01:05:48;;;;;;;2.35;0.80;;;26.00;63.50;;;;;;5119420;23;20525;-62
2023/03/04 01:08:10;;;;;;;2.72;0.80;;;26.00;63.70;;;;;;5119600;23;20013;-54
2023/03/04 01:10:32;;;;;;;5.85;1.08;;;26.00;63.90;;;;;;5118396;23;20009;-58
2023/03/04 01:12:55;;;;;;;1.48;0.73;;;26.00;64.40;;;;;;5117857;23;20027;-59
2023/03/04 01:15:17;;;;;;;1.52;0.70;;;26.00;64.60;;;;;;5119653;23;20079;-60
2023/03/04 01:17:40;;;;;;;2.15;0.63;;;26.10;64.60;;;;;;5117181;23;20407;-61
2023/03/04 01:20:04;;;;;;;2.95;0.80;;;26.10;64.80;;;;;;5117793;23;20668;-56
2023/03/04 01:22:26;;;;;;;3.75;1.10;;;26.00;64.70;;;;;;5117488;23;20045;-60
2023/03/04 01:24:49;;;;;;;3.65;1.23;;;26.10;64.80;;;;;;5117566;23;20096;-54
2023/03/04 01:27:11;;;;;;;6.55;0.80;;;26.10;64.70;;;;;;5119216;23;20017;-55
2023/03/04 01:29:34;;;;;;;3.28;0.70;;;26.10;64.80;;;;;;5115571;23;20024;-59
2023/03/04 01:31:56;;;;;;;3.17;0.82;;;26.10;64.70;;;;;;5117663;23;20021;-62
2023/03/04 01:34:22;;;;;;;3.20;1.20;;;26.10;64.70;;;;;;5109706;23;20044;-56
2023/03/04 01:36:44;;;;;;;4.97;0.82;;;26.20;64.70;;;;;;5118761;23;20020;-57
2023/03/04 01:39:06;;;;;;;3.53;0.90;;;26.20;64.80;;;;;;5118597;23;20079;-60
2023/03/04 01:41:29;;;;;;;2.80;0.80;;;26.20;64.70;;;;;;5118376;23;20020;-54
2023/03/04 01:43:53;;;;;;;3.30;0.77;;;26.20;64.80;;;;;;5118849;23;20012;-57
2023/03/04 01:46:16;;;;;;;2.88;0.93;;;26.30;64.80;;;;;;5118725;23;20068;-60
2023/03/04 01:48:39;;;;;;;1.98;0.70;;;26.20;64.90;;;;;;5115937;23;20074;-62
2023/03/04 01:51:04;;;;;;;1.25;0.60;;;26.30;65.00;;;;;;5119733;23;20091;-59
2023/03/04 01:53:28;;;;;;;2.88;1.02;;;26.30;65.10;;;;;;5119473;23;20398;-61
2023/03/04 01:55:54;;;;;;;4.57;0.88;;;26.30;65.10;;;;;;5119094;23;20044;-62
2023/03/04 01:58:16;;;;;;;1.38;0.75;;;26.40;64.70;;;;;;5120240;23;20025;-61
2023/03/04 02:00:39;;;;;;;1.27;0.60;;;26.40;64.30;;;;;;5119928;23;20513;-61
2023/03/04 02:03:10;;;;;;;1.20;0.63;;;26.40;64.20;;;;;;5118873;23;20016;-59
2023/03/04 02:05:33;;;;;;;1.55;0.80;;;26.40;64.60;;;;;;5121664;23;20017;-60
2023/03/04 02:07:56;;;;;;;2.38;0.55;;;26.40;63.50;;;;;;5115647;23;20009;-60
2023/03/04 02:10:19;;;;;;;2.40;1.00;;;26.40;63.40;;;;;;5109404;23;20021;-60
2023/03/04 02:12:43;;;;;;;3.05;0.80;;;26.40;63.30;;;;;;5118310;23;20517;-61
2023/03/04 02:15:07;;;;;;;3.38;1.02;;;26.40;62.70;;;;;;5116266;23;20100;-59
2023/03/04 02:17:31;;;;;;;2.72;0.73;;;26.50;62.10;;;;;;5118436;23;20391;-61
2023/03/04 02:20:01;;;;;;;;;;;26.50;62.20;;;;;;5120181;23;20092;-61
2023/03/04 02:22:24;;;;;;;2.50;0.73;;;26.50;61.60;;;;;;5118335;23;19908;-61
2023/03/04 02:24:51;;;;;;;1.50;0.77;;;26.50;61.30;;;;;;5109472;23;20088;-61
2023/03/04 02:27:14;;;;;;;2.25;0.90;;;26.50;60.40;;;;;;5115215;23;20024;-60
2023/03/04 02:29:36;;;;;;;1.40;0.57;;;26.50;61.00;;;;;;5118516;23;20068;-60
2023/03/04 02:31:59;;;;;;;3.38;0.95;;;26.50;60.70;;;;;;5118889;23;20020;-61
2023/03/04 02:34:44;;;;;;;2.20;0.80;;;26.50;60.80;;;;;;5108692;23;20064;-61
2023/03/04 02:37:09;;;;;;;2.50;0.73;;;26.40;60.70;;;;;;5115551;23;20033;-60
2023/03/04 02:39:44;;;;;;;2.45;0.77;;;26.50;60.50;;;;;;5118065;23;20009;-60
2023/03/04 02:42:06;;;;;;;1.33;0.85;;;26.50;61.00;;;;;;5118752;23;20069;-60
2023/03/04 02:44:35;;;;;;;2.50;0.73;;;26.50;61.10;;;;;;5119357;23;20017;-60
2023/03/04 02:46:58;;;;;;;1.30;0.63;;;26.50;61.40;;;;;;5119688;23;20104;-60
2023/03/04 02:49:23;;;;;;;0.95;0.80;;;26.50;61.40;;;;;;5118437;23;20059;-61
2023/03/04 02:51:45;;;;;;;2.15;0.80;;;26.50;61.60;;;;;;5110860;23;20436;-59
2023/03/04 02:54:19;;;;;;;2.30;1.00;;;26.50;61.80;;;;;;5119901;23;20459;-59
2023/03/04 02:56:46;;;;;;;1.90;0.60;;;26.50;61.10;;;;;;5118802;23;20463;-59
2023/03/04 02:59:08;;;;;;;1.30;0.40;;;26.50;60.60;;;;;;5118707;23;20021;-59
2023/03/04 03:01:31;;;;;;;3.55;0.77;;;26.50;61.10;;;;;;5119685;23;20016;-60
2023/03/04 03:03:53;;;;;;;2.95;0.77;;;26.50;61.30;;;;;;5110127;23;20460;-59
2023/03/04 03:06:15;;;;;;;2.00;1.00;;;26.50;61.10;;;;;;5120051;23;20024;-61
2023/03/04 03:08:38;;;;;;;1.63;0.95;;;26.50;61.10;;;;;;5119011;23;20343;-60
2023/03/04 03:11:01;;;;;;;1.83;0.70;;;26.50;60.90;;;;;;5120018;23;20013;-60
2023/03/04 03:13:23;;;;;;;1.90;0.80;;;26.50;60.60;;;;;;5118624;23;20521;-59
2023/03/04 03:15:46;;;;;;;1.60;0.65;;;26.50;61.00;;;;;;5112508;23;20047;-59
2023/03/04 03:18:09;;;;;;;1.23;0.75;;;26.50;61.20;;;;;;5120568;23;20478;-60
2023/03/04 03:20:31;;;;;;;;;;;26.50;61.10;;;;;;5121701;23;20013;-60
2023/03/04 03:22:54;;;;;;;2.78;0.80;;;26.60;61.00;;;;;;5121111;23;19908;-60
2023/03/04 03:25:17;;;;;;;1.60;0.60;;;26.50;61.00;;;;;;5120321;23;20360;-58
2023/03/04 03:27:39;;;;;;;1.98;0.93;;;26.60;61.20;;;;;;5120861;23;20455;-59
2023/03/04 03:30:02;;;;;;;1.67;0.57;;;26.60;61.20;;;;;;5109368;23;20398;-60
2023/03/04 03:32:25;;;;;;;1.05;0.50;;;26.60;61.50;;;;;;5117826;23;20092;-61
2023/03/04 03:34:47;;;;;;;2.60;0.80;;;26.60;61.70;;;;;;5120628;23;20024;-60
2023/03/04 03:37:09;;;;;;;1.88;0.60;;;26.60;61.80;;;;;;5121464;23;20463;-59
2023/03/04 03:39:32;;;;;;;1.83;0.70;;;26.60;62.10;;;;;;5120367;23;20019;-60
2023/03/04 03:41:54;;;;;;;1.95;0.63;;;26.60;61.80;;;;;;5120814;23;20031;-59
2023/03/04 03:44:17;;;;;;;2.83;0.77;;;26.60;61.60;;;;;;5120292;23;20383;-59
2023/03/04 03:46:39;;;;;;;2.60;0.90;;;26.60;61.60;;;;;;5121146;23;20017;-59
2023/03/04 03:49:01;;;;;;;4.43;0.73;;;26.60;61.60;;;;;;5119921;23;20024;-59
2023/03/04 03:51:24;;;;;;;1.65;0.63;;;26.60;61.60;;;;;;5121454;23;20020;-59
2023/03/04 03:53:46;;;;;;;3.00;0.90;;;26.60;61.60;;;;;;5120572;23;20518;-59
2023/03/04 03:56:09;;;;;;;1.65;0.70;;;26.60;61.80;;;;;;5121166;23;20128;-59
2023/03/04 03:58:31;;;;;;;2.08;0.70;;;26.60;61.80;;;;;;5117316;23;20087;-60
2023/03/04 04:00:54;;;;;;;2.90;0.80;;;26.60;61.70;;;;;;5118474;23;20367;-60
2023/03/04 04:03:17;;;;;;;2.40;0.70;;;26.60;61.50;;;;;;5113700;23;20341;-58
2023/03/04 04:05:39;;;;;;;1.42;0.55;;;26.60;61.60;;;;;;5117217;23;20063;-59
2023/03/04 04:08:02;;;;;;;3.42;0.88;;;26.60;61.80;;;;;;5116765;23;20402;-55
2023/03/04 04:10:24;;;;;;;2.67;0.63;;;26.60;62.00;;;;;;5118375;23;20020;-57
2023/03/04 04:12:47;;;;;;;2.08;1.20;;;26.70;62.30;;;;;;5117035;23;20052;-55
2023/03/04 04:15:11;;;;;;;2.38;1.10;;;26.70;62.30;;;;;;5112323;23;20020;-53
2023/03/04 04:17:34;;;;;;;1.98;1.10;;;26.70;62.40;;;;;;5116427;23;20455;-54
2023/03/04 04:19:56;;;;;;;1.55;1.15;;;26.80;62.50;;;;;;5117474;23;20100;-57
2023/03/04 04:22:20;;;;;;;1.27;0.73;;;26.80;62.40;;;;;;5117313;23;20055;-53
2023/03/04 04:24:42;;;;;;;2.90;1.05;;;26.90;62.40;;;;;;5117391;23;20336;-58
2023/03/04 04:27:05;;;;;;;2.92;1.30;;;26.90;62.40;;;;;;5114989;23;20016;-59
2023/03/04 04:29:27;;;;;;;1.50;1.00;;;26.90;62.40;;;;;;5117492;23;20096;-58
2023/03/04 04:31:50;;;;;;;2.83;0.90;;;27.00;62.50;;;;;;5103800;23;20017;-59
2023/03/04 04:34:12;;;;;;;3.10;0.95;;;27.00;62.50;;;;;;5108212;23;20013;-58
2023/03/04 04:36:35;;;;;;;4.57;1.25;;;27.10;62.50;;;;;;5110101;23;20856;-51
2023/03/04 04:38:57;;;;;;;2.07;1.00;;;27.10;62.50;;;;;;5115847;23;20077;-56
2023/03/04 04:41:22;;;;;;;5.80;1.40;;;27.10;62.50;;;;;;5111331;23;20016;-53
2023/03/04 04:43:45;;;;;;;2.90;1.33;;;27.10;62.50;;;;;;5109289;23;20039;-59
2023/03/04 04:46:08;;;;;;;2.13;1.42;;;27.20;62.40;;;;;;5109801;23;20016;-52
2023/03/04 04:48:31;;;;;;;5.60;1.70;;;27.20;62.30;;;;;;5109051;23;20045;-60
2023/03/04 04:50:56;;;;;;;3.35;1.70;;;27.20;62.20;;;;;;5109353;23;20510;-58
2023/03/04 04:53:18;;;;;;;5.53;1.52;;;27.20;62.20;;;;;;5109740;23;20613;-60
2023/03/04 04:55:41;;;;;;;5.28;1.73;;;27.30;62.20;;;;;;5108476;23;20017;-59
2023/03/04 04:58:06;;;;;;;3.35;1.70;;;27.30;62.10;;;;;;5108937;23;20135;-59
2023/03/04 05:00:28;;;;;;;5.68;2.85;;;27.30;62.00;;;;;;5083700;23;20025;-60
2023/03/04 05:02:51;;;;;;;4.22;3.60;;;27.40;61.80;;;;;;5084586;23;20018;-60
2023/03/04 05:05:14;;;;;;;4.45;3.50;;;27.50;61.60;;;;;;5082248;23;20067;-59
2023/03/04 05:07:36;;;;;;;4.88;3.30;;;27.50;61.50;;;;;;5074151;23;20202;-57
2023/03/04 05:09:59;;;;;;;5.03;3.00;;;27.60;61.60;;;;;;5082301;23;20475;-59
2023/03/04 05:12:21;;;;;;;3.00;2.60;;;27.70;61.40;;;;;;5082923;23;20160;-54
2023/03/04 05:14:44;;;;;;;3.75;2.58;;;27.70;61.10;;;;;;5085118;23;20021;-54
2023/03/04 05:17:06;;;;;;;3.15;2.25;;;27.80;61.70;;;;;;5082174;23;20483;-59
2023/03/04 05:19:29;;;;;;;3.70;2.08;;;27.80;61.10;;;;;;5081840;23;20020;-59
2023/03/04 05:21:51;;;;;;;2.58;2.00;;;27.80;61.10;;;;;;5084376;23;20218;-52
2023/03/04 05:24:13;;;;;;;3.20;1.80;;;27.90;60.90;;;;;;5082441;23;20438;-59
2023/03/04 05:26:36;;;;;;;2.85;1.50;;;27.90;60.90;;;;;;5084842;23;20598;-55
2023/03/04 05:28:58;;;;;;;4.70;1.70;;;28.00;60.70;;;;;;5081703;23;20021;-57
2023/03/04 05:31:21;;;;;;;2.08;1.67;;;28.10;60.50;;;;;;5084108;23;20009;-49
2023/03/04 05:33:43;;;;;;;1.77;1.60;;;28.10;60.30;;;;;;5082684;23;20298;-54
2023/03/04 05:36:07;;;;;;;2.97;2.10;;;28.20;60.20;;;;;;5083681;23;20017;-59
2023/03/04 05:38:28;;;;;;;;;;;28.30;60.80;;;;;;5083495;23;20017;-57
2023/03/04 05:41:00;;;;;;;3.33;2.10;;;28.30;60.00;;;;;;5083882;23;19908;-57
2023/03/04 05:43:23;;;;;;;3.83;1.70;;;28.40;60.10;;;;;;5082334;23;20021;-60
2023/03/04 05:45:49;;;;;;;2.55;1.70;;;28.40;60.20;;;;;;5086576;23;20448;-66
2023/03/04 05:48:12;;;;;;;2.10;1.30;;;28.50;60.40;;;;;;5081913;23;20021;-67
2023/03/04 05:50:35;;;;;;;3.75;1.90;;;28.40;60.30;;;;;;5085120;23;20013;-63
2023/03/04 05:52:57;;;;;;;2.60;1.98;;;28.50;60.40;;;;;;5083162;23;20025;-63
2023/03/04 05:55:20;;;;;;;14.60;1.85;;;28.50;60.30;;;;;;5083550;23;20064;-63
2023/03/04 05:57:43;;;;;;;3.27;1.80;;;28.50;60.50;;;;;;5082463;23;20337;-59
2023/03/04 06:00:10;;;;;;;6.82;1.60;;;28.50;60.60;;;;;;5095919;23;20025;-60
2023/03/04 06:02:33;;;;;;;2.97;1.50;;;28.50;60.70;;;;;;5100783;23;20574;-65
2023/03/04 06:04:55;;;;;;;4.40;1.50;;;28.40;60.70;;;;;;5109303;23;20098;-67
2023/03/04 06:07:18;;;;;;;3.35;1.50;;;28.40;60.50;;;;;;5110846;23;20092;-61
2023/03/04 06:09:40;;;;;;;3.20;1.27;;;28.40;60.50;;;;;;5101869;23;20009;-59
2023/03/04 06:12:02;;;;;;;4.07;1.55;;;28.50;60.60;;;;;;5106742;23;20667;-58
2023/03/04 06:14:25;;;;;;;2.70;1.23;;;28.50;60.60;;;;;;5110097;23;20514;-63
2023/03/04 06:16:47;;;;;;;16.65;1.80;;;28.50;60.70;;;;;;5108172;23;20292;-64
2023/03/04 06:19:10;;;;;;;2.72;1.10;;;28.50;60.70;;;;;;5109173;23;20040;-60
2023/03/04 06:21:32;;;;;;;4.10;1.15;;;28.50;60.70;;;;;;5108374;23;20368;-61
2023/03/04 06:23:55;;;;;;;3.22;1.20;;;28.60;60.50;;;;;;5110566;23;20012;-65
2023/03/04 06:26:17;;;;;;;4.20;1.38;;;28.70;60.70;;;;;;5114229;23;20463;-63
2023/03/04 06:28:43;;;;;;;2.00;0.93;;;28.60;60.40;;;;;;5117458;23;20009;-59
2023/03/04 06:31:06;;;;;;;3.80;1.10;;;28.70;60.40;;;;;;5116694;23;20059;-59
2023/03/04 06:33:28;;;;;;;6.80;1.25;;;28.70;60.30;;;;;;5112852;23;20355;-55
2023/03/04 06:35:55;;;;;;;8.00;1.10;;;28.80;60.30;;;;;;5118627;23;20028;-49
2023/03/04 06:38:17;;;;;;;4.05;1.17;;;28.80;60.30;;;;;;5118459;23;20076;-50
2023/03/04 06:40:40;;;;;;;2.00;0.80;;;28.90;60.20;;;;;;5119221;23;20024;-47
2023/03/04 06:43:03;;;;;;;1.60;1.00;;;29.00;60.20;;;;;;5118570;23;20013;-54
2023/03/04 06:45:25;;;;;;;2.08;0.90;;;29.00;60.00;;;;;;5118409;23;20017;-56
2023/03/04 06:47:48;;;;;;;1.38;1.00;;;29.00;59.80;;;;;;5118287;23;20095;-55
2023/03/04 06:50:12;;;;;;;1.63;0.85;;;29.00;59.90;;;;;;5119132;23;20017;-51
2023/03/04 06:52:34;;;;;;;18.00;1.70;;;29.10;59.90;;;;;;5120980;23;20024;-56
2023/03/04 06:54:57;;;;;;;1.67;1.00;;;29.10;59.80;;;;;;5111494;23;20024;-59
2023/03/04 06:57:19;;;;;;;2.23;1.00;;;29.10;59.70;;;;;;5119046;23;20475;-49
2023/03/04 06:59:42;;;;;;;2.33;1.02;;;29.10;59.70;;;;;;5119976;23;20024;-50
2023/03/04 07:02:10;;;;;;;1.42;0.80;;;29.10;59.70;;;;;;5111228;23;20055;-50
2023/03/04 07:04:32;;;;;;;1.63;0.90;;;29.10;59.90;;;;;;5118451;23;20471;-53
2023/03/04 07:06:55;;;;;;;4.50;1.60;;;29.10;60.00;;;;;;5120591;23;20395;-55
2023/03/04 07:09:18;;;;;;;3.03;1.73;;;29.10;60.20;;;;;;5120188;23;20072;-54
2023/03/04 07:11:40;;;;;;;5.37;1.87;;;29.00;60.20;;;;;;5121545;23;20024;-53
2023/03/04 07:14:03;;;;;;;4.82;2.13;;;29.00;60.40;;;;;;5121770;23;20037;-52
2023/03/04 07:16:25;;;;;;;7.15;2.28;;;29.10;60.50;;;;;;5120198;23;20100;-57
2023/03/04 07:18:48;;;;;;;5.57;2.25;;;29.00;60.50;;;;;;5120963;23;20021;-60
2023/03/04 07:21:11;;;;;;;4.47;1.95;;;29.10;60.70;;;;;;5120374;23;20092;-58
2023/03/04 07:23:35;;;;;;;6.07;2.30;;;29.10;60.60;;;;;;5120303;23;20021;-53
2023/03/04 07:25:58;;;;;;;6.65;2.40;;;29.00;60.70;;;;;;5121459;23;20100;-52
2023/03/04 07:28:20;;;;;;;5.15;2.03;;;29.10;60.60;;;;;;5121170;23;20021;-55
2023/03/04 07:30:43;;;;;;;5.82;1.60;;;29.10;60.60;;;;;;5121362;23;20075;-55
2023/03/04 07:33:06;;;;;;;6.15;2.08;;;29.10;60.70;;;;;;5120141;23;20021;-57
2023/03/04 07:35:28;;;;;;;5.38;2.15;;;29.10;60.80;;;;;;5120846;23;20017;-53
2023/03/04 07:37:50;;;;;;;4.05;1.77;;;29.10;60.70;;;;;;5109080;23;20102;-53
2023/03/04 07:40:13;;;;;;;4.55;1.95;;;29.10;60.70;;;;;;5119738;23;20020;-57
2023/03/04 07:42:36;;;;;;;3.28;1.42;;;29.10;60.70;;;;;;5117215;23;20016;-57
2023/03/04 07:45:00;;;;;;;7.57;2.08;;;29.10;60.90;;;;;;5120692;23;20101;-55
2023/03/04 07:47:23;;;;;;;6.95;1.58;;;29.10;60.60;;;;;;5119827;23;20070;-56
2023/03/04 07:49:45;;;;;;;5.32;1.45;;;29.10;60.60;;;;;;5120108;23;20013;-56
2023/03/04 07:52:08;;;;;;;4.70;1.42;;;29.10;60.30;;;;;;5120114;23;20021;-55
2023/03/04 07:54:31;;;;;;;3.25;1.52;;;29.10;60.40;;;;;;5119684;23;20074;-55
2023/03/04 07:56:53;;;;;;;3.65;1.35;;;29.10;60.40;;;;;;5112069;23;20024;-47
2023/03/04 07:59:16;;;;;;;3.83;1.38;;;29.10;60.50;;;;;;5117185;23;20086;-49
2023/03/04 08:01:38;;;;;;;2.75;1.00;;;29.10;60.30;;;;;;5118713;23;20189;-48
2023/03/04 08:04:02;;;;;;;4.53;1.10;;;29.20;60.40;;;;;;5119041;23;20351;-56
2023/03/04 08:06:25;;;;;;;3.92;1.27;;;29.10;60.30;;;;;;5116432;23;20047;-51
2023/03/04 08:08:48;;;;;;;;;;;29.20;60.30;;;;;;5114361;23;20463;-57
2023/03/04 08:11:16;;;;;;;6.88;1.45;;;29.10;60.40;;;;;;5116674;23;19996;-54
2023/03/04 08:13:39;;;;;;;3.10;1.13;;;29.10;60.20;;;;;;5117770;23;20021;-59
2023/03/04 08:16:02;;;;;;;4.28;1.15;;;29.20;60.30;;;;;;5118428;23;20017;-57
2023/03/04 08:18:24;;;;;;;4.80;1.08;;;29.10;60.30;;;;;;5117204;23;20024;-59
2023/03/04 08:20:47;;;;;;;4.35;1.15;;;29.10;60.30;;;;;;5117265;23;20024;-55
2023/03/04 08:23:10;;;;;;;2.42;1.08;;;29.10;60.40;;;;;;5117305;23;20017;-59
2023/03/04 08:25:32;;;;;;;1.75;0.80;;;29.10;60.50;;;;;;5119898;23;20024;-59
2023/03/04 08:27:55;;;;;;;2.03;0.77;;;29.10;60.50;;;;;;5116781;23;20416;-59
2023/03/04 08:30:17;;;;;;;3.55;0.80;;;29.10;60.50;;;;;;5119604;23;20009;-49
2023/03/04 08:32:40;;;;;;;2.72;0.88;;;29.10;60.40;;;;;;5109591;23;20411;-50
2023/03/04 08:35:03;;;;;;;2.85;0.85;;;29.10;60.40;;;;;;5120350;23;20013;-52
2023/03/04 08:37:25;;;;;;;3.40;1.13;;;29.00;60.30;;;;;;5116434;23;20028;-58
2023/03/04 08:39:48;;;;;;;2.40;0.70;;;29.10;60.50;;;;;;5118591;23;20058;-55
2023/03/04 08:42:10;;;;;;;1.80;0.60;;;29.10;60.50;;;;;;5117787;23;20092;-53
2023/03/04 08:44:33;;;;;;;2.60;1.00;;;29.10;60.50;;;;;;5118105;23;20014;-51
2023/03/04 08:46:55;;;;;;;2.97;0.65;;;29.00;60.40;;;;;;5118121;23;20486;-49
2023/03/04 08:49:18;;;;;;;1.93;0.77;;;29.10;61.20;;;;;;5118119;23;20059;-55
2023/03/04 08:51:41;;;;;;;1.98;0.70;;;29.10;60.50;;;;;;5118478;23;20009;-52
2023/03/04 08:54:05;;;;;;;3.70;0.85;;;29.10;60.20;;;;;;5115986;23;20469;-60
2023/03/04 08:56:27;;;;;;;2.00;0.95;;;29.00;60.30;;;;;;5119959;23;20016;-59
2023/03/04 08:58:50;;;;;;;2.97;0.80;;;29.00;60.20;;;;;;5119959;23;20035;-62
2023/03/04 09:01:13;;;;;;;2.00;0.90;;;29.00;60.10;;;;;;5120468;23;20020;-60
2023/03/04 09:03:36;;;;;;;0.52;0.50;;;29.00;60.20;;;;;;5115443;23;20594;-60
2023/03/04 09:06:00;;;;;;;2.73;0.80;;;29.00;60.20;;;;;;5119792;23;20606;-57
2023/03/04 09:08:23;;;;;;;2.35;0.63;;;29.00;60.20;;;;;;5119635;23;20329;-61
2023/03/04 09:10:46;;;;;;;3.00;0.90;;;29.00;60.30;;;;;;5118961;23;20506;-54
2023/03/04 09:13:14;;;;;;;1.70;0.60;;;29.00;60.40;;;;;;5116458;23;20151;-52
2023/03/04 09:15:42;;;;;;;3.83;1.10;;;29.00;60.40;;;;;;5103739;23;20049;-48
2023/03/04 09:18:06;;;;;;;1.48;0.73;;;29.00;60.40;;;;;;5111487;23;20303;-57
2023/03/04 09:20:29;;;;;;;3.05;1.20;;;29.00;60.40;;;;;;5113102;23;20064;-59
2023/03/04 09:22:51;;;;;;;2.75;0.68;;;29.00;60.30;;;;;;5112029;23;20070;-54
2023/03/04 09:25:14;;;;;;;4.00;1.13;;;29.00;60.20;;;;;;5111732;23;20013;-60
2023/03/04 09:27:36;;;;;;;8.13;1.48;;;29.00;60.50;;;;;;5110921;23;20028;-59
2023/03/04 09:29:59;;;;;;;4.07;1.20;;;29.00;60.30;;;;;;5111075;23;20084;-56
2023/03/04 09:32:21;;;;;;;6.90;1.45;;;29.00;60.40;;;;;;5111260;23;20021;-59
2023/03/04 09:34:43;;;;;;;3.83;1.08;;;29.00;60.20;;;;;;5112520;23;20088;-59
2023/03/04 09:37:06;;;;;;;3.80;0.80;;;29.00;60.20;;;;;;5112162;23;20029;-57
2023/03/04 09:39:28;;;;;;;1.60;0.73;;;29.00;60.30;;;;;;5111671;23;20104;-60
2023/03/04 09:41:56;;;;;;;2.72;0.73;;;29.00;60.10;;;;;;5112855;23;20017;-59
2023/03/04 09:44:31;;;;;;;2.70;1.23;;;29.00;60.20;;;;;;5103541;23;20056;-61
2023/03/04 09:46:57;;;;;;;3.63;0.93;;;29.00;60.40;;;;;;5109353;23;20013;-56
2023/03/04 09:49:21;;;;;;;2.67;0.80;;;28.90;60.30;;;;;;5111678;23;20057;-50
2023/03/04 09:52:04;;;;;;;2.72;0.85;;;29.00;60.00;;;;;;5103648;23;20330;-60
2023/03/04 09:54:57;;;;;;;3.05;1.02;;;28.90;60.30;;;;;;5108939;23;20020;-59
2023/03/04 09:57:30;;;;;;;2.17;0.98;;;29.00;60.30;;;;;;5106801;23;20112;-58
2023/03/04 09:59:55;;;;;;;2.50;0.70;;;29.00;60.00;;;;;;5103883;23;20028;-60
2023/03/04 10:02:31;;;;;;;2.42;0.77;;;28.90;59.80;;;;;;5108351;23;20044;-60
2023/03/04 10:04:58;;;;;;;2.35;0.80;;;28.90;59.90;;;;;;5108310;23;20226;-60
2023/03/04 10:07:29;;;;;;;1.75;0.63;;;28.90;59.80;;;;;;5111936;23;20016;-59
2023/03/04 10:10:02;;;;;;;1.80;0.80;;;28.90;59.80;;;;;;5111955;23;20347;-61
2023/03/04 10:12:29;;;;;;;6.28;1.60;;;28.90;60.00;;;;;;5112107;23;20418;-58
2023/03/04 10:15:16;;;;;;;2.40;0.90;;;28.90;59.80;;;;;;5103712;23;20027;-60
2023/03/04 10:17:45;;;;;;;3.47;0.75;;;28.90;59.80;;;;;;5111095;23;20061;-60
2023/03/04 10:20:57;;;;;;;3.75;0.75;;;28.90;59.80;;;;;;5112639;23;20111;-60
2023/03/04 10:23:23;;;;;;;2.13;0.80;;;28.90;59.70;;;;;;5103856;23;20016;-60
2023/03/04 10:25:50;;;;;;;3.45;0.88;;;28.90;59.40;;;;;;5116215;23;20024;-62
2023/03/04 10:28:17;;;;;;;2.35;0.85;;;28.90;59.60;;;;;;5108159;23;20044;-60
2023/03/04 10:31:01;;;;;;;5.45;1.15;;;28.90;59.40;;;;;;5108723;23;20013;-63
2023/03/04 10:33:27;;;;;;;2.15;1.15;;;28.90;59.50;;;;;;5119072;23;20009;-62
2023/03/04 10:36:30;;;;;;;2.30;0.60;;;28.80;59.40;;;;;;5120422;23;20052;-62
2023/03/04 10:39:11;;;;;;;1.85;0.90;;;28.80;59.40;;;;;;5112414;23;20127;-62
2023/03/04 10:41:33;;;;;;;1.30;0.68;;;28.80;59.40;;;;;;5108362;23;20021;-58
2023/03/04 10:44:16;;;;;;;3.28;0.80;;;28.80;59.40;;;;;;5120414;23;20017;-61
2023/03/04 10:46:40;;;;;;;3.15;0.75;;;28.80;59.30;;;;;;5119418;23;20017;-60
2023/03/04 10:49:03;;;;;;;2.28;0.57;;;28.80;59.20;;;;;;5117243;23;20047;-61
2023/03/04 10:51:28;;;;;;;3.00;0.65;;;28.70;59.20;;;;;;5109426;23;20131;-62
2023/03/04 10:54:09;;;;;;;1.10;0.55;;;28.70;59.20;;;;;;5120429;23;20413;-61
2023/03/04 10:56:45;;;;;;;1.27;0.52;;;28.70;59.40;;;;;;5117979;23;20087;-60
2023/03/04 10:59:39;;;;;;;1.98;0.90;;;28.70;59.30;;;;;;5110387;23;20429;-58
2023/03/04 11:02:14;;;;;;;10.73;1.33;;;28.70;59.40;;;;;;5118425;23;20024;-60
2023/03/04 11:04:36;;;;;;;2.33;1.10;;;28.70;59.20;;;;;;5110712;23;20108;-54
2023/03/04 11:06:58;;;;;;;2.58;0.80;;;28.70;59.40;;;;;;5117804;23;20020;-58
2023/03/04 11:09:30;;;;;;;4.45;1.00;;;28.70;59.10;;;;;;5114425;23;20036;-55
2023/03/04 11:11:54;;;;;;;2.17;0.70;;;28.70;59.10;;;;;;5106364;23;20021;-47
2023/03/04 11:14:30;;;;;;;5.57;0.98;;;28.70;59.20;;;;;;5109746;23;20013;-58
2023/03/04 11:16:56;;;;;;;5.88;0.90;;;28.70;59.40;;;;;;5117649;23;20025;-53
2023/03/04 11:19:21;;;;;;;3.75;0.70;;;28.70;59.10;;;;;;5116580;23;20180;-56
2023/03/04 11:21:44;;;;;;;3.03;0.70;;;28.60;59.30;;;;;;5117304;23;20021;-58
2023/03/04 11:24:14;;;;;;;4.65;1.05;;;28.60;59.20;;;;;;5117107;23;20446;-54
2023/03/04 11:27:23;;;;;;;1.80;0.90;;;28.60;59.20;;;;;;5116204;23;20079;-54
2023/03/04 11:29:52;;;;;;;2.45;0.90;;;28.60;59.10;;;;;;5089147;23;20029;-57
2023/03/04 11:32:20;;;;;;;3.05;0.70;;;28.60;59.10;;;;;;5115409;23;20052;-54
2023/03/04 11:34:44;;;;;;;3.75;0.77;;;28.60;59.10;;;;;;5113119;23;20044;-55
2023/03/04 11:37:09;;;;;;;1.05;0.77;;;28.60;59.20;;;;;;5114853;23;20382;-60
2023/03/04 11:39:38;;;;;;;2.35;0.68;;;28.60;59.20;;;;;;5113189;23;20012;-61
2023/03/04 11:42:16;;;;;;;3.53;0.52;;;28.60;59.20;;;;;;5116030;23;20410;-60
2023/03/04 11:44:40;;;;;;;2.97;0.90;;;28.50;59.20;;;;;;5118508;23;20100;-60
2023/03/04 11:47:37;;;;;;;0.95;0.85;;;28.50;59.20;;;;;;5118125;23;20091;-63
2023/03/04 11:50:48;;;;;;;0.85;0.60;;;28.50;59.20;;;;;;5109829;23;20013;-61
2023/03/04 11:53:19;;;;;;;19.55;1.40;;;28.60;59.30;;;;;;5041194;23;20022;-59
2023/03/04 11:55:59;;;;;;;2.20;1.20;;;28.50;59.30;;;;;;5114731;23;20196;-56
2023/03/04 11:58:39;;;;;;;2.10;0.75;;;28.50;59.20;;;;;;5120903;23;20032;-49
2023/03/04 12:01:14;;;;;;;2.83;0.82;;;28.50;59.30;;;;;;5110753;23;20355;-56
2023/03/04 12:04:01;;;;;;;1.95;0.75;;;28.50;59.40;;;;;;5119547;23;20549;-54
2023/03/04 12:06:48;;;;;;;2.05;0.85;;;28.50;59.60;;;;;;5120076;23;20104;-59
2023/03/04 12:09:31;;;;;;;1.25;0.52;;;28.50;59.20;;;;;;5117121;23;20016;-55
2023/03/04 12:12:06;;;;;;;2.97;0.82;;;28.50;59.30;;;;;;5113225;23;20016;-59
2023/03/04 12:14:47;;;;;;;1.40;0.90;;;28.50;59.30;;;;;;5117216;23;20020;-61
2023/03/04 12:17:28;;;;;;;2.20;0.88;;;28.50;59.20;;;;;;5120922;23;20130;-55
2023/03/04 12:20:24;;;;;;;0.90;0.52;;;28.50;58.90;;;;;;5117532;23;20363;-53
2023/03/04 12:23:04;;;;;;;4.38;1.40;;;28.50;59.60;;;;;;5111416;23;20021;-60
2023/03/04 12:25:38;;;;;;;1.80;0.85;;;28.50;59.70;;;;;;5117030;23;20048;-60
2023/03/04 12:28:13;;;;;;;2.92;1.00;;;28.50;59.70;;;;;;5119854;23;20024;-56
2023/03/04 12:30:46;;;;;;;1.35;0.80;;;28.50;59.70;;;;;;5111252;23;20013;-57
2023/03/04 12:33:17;;;;;;;1.92;0.90;;;28.50;59.60;;;;;;5114738;23;20009;-57
2023/03/04 12:36:00;;;;;;;2.15;0.90;;;28.50;59.60;;;;;;5115261;23;20017;-57
2023/03/04 12:38:38;;;;;;;1.45;0.80;;;28.50;59.50;;;;;;5115587;23;20029;-57
2023/03/04 12:41:18;;;;;;;1.38;0.68;;;28.40;59.50;;;;;;5110593;23;20132;-59